Terminal Aerodrome Forecast
Issued by NWS Quad Cities IA IL

Home | Current Version | Previous Version | Text Only | Print | Product List | Glossary On
Versions: 1 2 3 4 5 6 7 8 9 10 11 12 13 14 15 16 17 18
000
FTUS43 KDVN 101130
TAFDBQ
TAF
KDBQ 101130Z 1012/1112 25005KT P6SM OVC050
     FM101900 16007KT 6SM -SN OVC025
      TEMPO 1020/1023 2SM -SN OVC015
     FM102300 15009KT 2SM -SN BR SCT008 OVC012
     FM110000 14009KT 1 1/2SM -SN BR OVC008
     FM110300 13011KT 2SM -SN BR OVC007=

USA.gov is the U.S. government's official web portal to all federal, state and local government web resources and services.